D/T METAR WX W/DIR W/SPE G/SPE TEMP DEWP
23/05/19 13:20 EGPO 231220Z 29016KT 8000 -RADZ FEW007 SCT009 BKN014 10/07 Q1012 -RA -DZ WNW (290°) 18.4mph 10°C 7°C
23/05/19 12:50 EGPO 231150Z 30016KT 9999 VCSH FEW007 SCT009 BKN014 10/08 Q1012 VCSH WNW (300°) 18.4mph 10°C 8°C
23/05/19 12:20 EGPO 231120Z 29014KT 9999 -RA FEW007 SCT009 BKN012 09/08 Q1012 -RA WNW (290°) 16.1mph 9°C 8°C
23/05/19 11:50 EGPO 231050Z 29015KT 280V340 9999 VCSH FEW007 SCT009 BKN014 09/08 Q1012 VCSH WNW (290°) 17.3mph 9°C 8°C
23/05/19 11:20 EGPO 231020Z 29012KT 9999 -RA FEW007 SCT008 BKN014 09/08 Q1012 -RA WNW (290°) 13.8mph 9°C 8°C
23/05/19 10:50 EGPO 230950Z 28013KT 9999 -RA FEW007 SCT008 BKN014 09/08 Q1012 -RA W (280°) 15.0mph 9°C 8°C
23/05/19 10:20 EGPO 230920Z 29014KT 9999 -RADZ FEW007 SCT009 BKN012 09/07 Q1012 -RA -DZ WNW (290°) 16.1mph 9°C 7°C
23/05/19 09:50 EGPO 230850Z 29014KT 9999 VCSH FEW007 SCT009 BKN018 09/07 Q1012 VCSH WNW (290°) 16.1mph 9°C 7°C
23/05/19 09:20 EGPO 230820Z 30013KT 9999 9000N VCSH FEW007 SCT009 BKN016 09/06 Q1012 VCSH WNW (300°) 15.0mph 9°C 6°C
23/05/19 08:50 EGPO 230750Z 29014KT 9999 VCSH FEW011 BKN016 09/06 Q1012 VCSH WNW (290°) 16.1mph 9°C 6°C
23/05/19 08:20 EGPO 230720Z 30013KT 9999 VCSH FEW011 BKN018 09/06 Q1012 VCSH WNW (300°) 15.0mph 9°C 6°C
23/05/19 07:50 EGPO 230650Z 30012KT 9999 FEW011 BKN020 09/06 Q1012 WNW (300°) 13.8mph 9°C 6°C
23/05/19 07:20 EGPO 230620Z 29011KT 9999 VCSH FEW011 BKN018 09/06 Q1012 VCSH WNW (290°) 12.7mph 9°C 6°C
23/05/19 06:50 EGPO 230550Z 30009KT 9999 VCSH FEW011 BKN018 08/06 Q1012 VCSH WNW (300°) 10.4mph 8°C 6°C
23/05/19 06:20 EGPO 230520Z 29011KT 9999 FEW011 BKN018 08/06 Q1012 WNW (290°) 12.7mph 8°C 6°C
23/05/19 05:50 EGPO 230450Z 30010KT 9999 FEW011 BKN016 08/06 Q1012 WNW (300°) 11.5mph 8°C 6°C
23/05/19 05:20 EGPO 230420Z AUTO 31013KT 9999 BKN015/// 08/06 Q1012 NW (310°) 15.0mph 8°C 6°C
23/05/19 04:50 EGPO 230350Z AUTO 30011KT 9999 BKN017/// 08/06 Q1012 WNW (300°) 12.7mph 8°C 6°C
23/05/19 04:20 EGPO 230320Z AUTO 30011KT 9999 BKN011/// BKN017/// 08/07 Q1012 WNW (300°) 12.7mph 8°C 7°C
23/05/19 03:50 EGPO 230250Z AUTO 30010KT 9999 BKN010/// BKN016/// OVC020/// 09/07 Q1012 WNW (300°) 11.5mph 9°C 7°C
23/05/19 03:20 EGPO 230220Z AUTO 31013KT 9999 OVC008/// 09/07 Q1013 NW (310°) 15.0mph 9°C 7°C
23/05/19 02:50 EGPO 230150Z AUTO 30011KT 9999 BKN008/// OVC014/// 09/08 Q1013 WNW (300°) 12.7mph 9°C 8°C
23/05/19 02:20 EGPO 230120Z AUTO 31010KT 9999 BKN007/// OVC012/// 09/08 Q1013 NW (310°) 11.5mph 9°C 8°C
23/05/19 01:50 EGPO 230050Z AUTO 31012KT 9999 BKN007/// OVC011/// 09/08 Q1013 NW (310°) 13.8mph 9°C 8°C
23/05/19 01:20 EGPO 230020Z AUTO 30012KT 9999 -RA BKN007/// 09/08 Q1013 -RA WNW (300°) 13.8mph 9°C 8°C
23/05/19 00:50 EGPO 222350Z AUTO 30011KT 9999 -RA OVC007/// 09/08 Q1013 -RA WNW (300°) 12.7mph 9°C 8°C
23/05/19 00:20 EGPO 222320Z AUTO 29013KT 9999 -RA BKN008/// OVC013/// 09/08 Q1013 -RA WNW (290°) 15.0mph 9°C 8°C
22/05/19 23:50 EGPO 222250Z AUTO 29011KT 9999 BKN009/// OVC040/// 09/08 Q1014 WNW (290°) 12.7mph 9°C 8°C
22/05/19 23:20 EGPO 222220Z AUTO 30011KT 9999 BKN008/// OVC015/// 09/08 Q1014 WNW (300°) 12.7mph 9°C 8°C
22/05/19 22:50 EGPO 222150Z AUTO 30010KT 9999 BKN011/// BKN017/// BKN030/// 09/08 Q1014 WNW (300°) 11.5mph 9°C 8°C
22/05/19 22:20 EGPO 222120Z AUTO 30008KT 9999 BKN009/// OVC019/// 10/08 Q1014 WNW (300°) 9.2mph 10°C 8°C
22/05/19 21:50 EGPO 222050Z AUTO 30010KT 9999 SCT007/// OVC010/// 10/08 Q1014 WNW (300°) 11.5mph 10°C 8°C
22/05/19 21:20 EGPO 222020Z AUTO 30009KT 9999 BKN012/// BKN016/// OVC026/// 10/08 Q1015 WNW (300°) 10.4mph 10°C 8°C
22/05/19 20:50 EGPO 221950Z AUTO 30009KT 9999 BKN008/// OVC016/// 10/09 Q1015 WNW (300°) 10.4mph 10°C 9°C
22/05/19 20:20 EGPO 221920Z AUTO 30008KT 9999 FEW009/// BKN013/// OVC018/// 10/09 Q1015 WNW (300°) 9.2mph 10°C 9°C
22/05/19 19:20 EGPO 221820Z 31009KT 9999 -RA FEW007 SCT012 BKN021 10/08 Q1015 -RA NW (310°) 10.4mph 10°C 8°C
22/05/19 18:50 EGPO 221750Z 31010KT 9999 -RA FEW007 SCT012 BKN037 10/09 Q1015 -RA NW (310°) 11.5mph 10°C 9°C
22/05/19 18:20 EGPO 221720Z 31011KT 9999 -RA FEW007 SCT010 BKN037 10/09 Q1015 -RA NW (310°) 12.7mph 10°C 9°C
22/05/19 17:50 EGPO 221650Z 32011KT 9999 -RA FEW008 SCT010 BKN021 10/09 Q1015 -RA NW (320°) 12.7mph 10°C 9°C
22/05/19 17:20 EGPO 221620Z 33013KT 9999 -RA FEW008 SCT013 BKN021 11/09 Q1015 -RA NNW (330°) 15.0mph 11°C 9°C
22/05/19 16:50 EGPO 221550Z 31010KT 9999 -RA FEW008 SCT013 BKN022 11/09 Q1016 -RA NW (310°) 11.5mph 11°C 9°C
22/05/19 15:50 EGPO 221450Z 32011KT 9999 -RA FEW008 SCT014 BKN023 10/09 Q1016 -RA NW (320°) 12.7mph 10°C 9°C
22/05/19 15:20 EGPO 221420Z 32011KT 9999 -RA SCT015 BKN024 11/08 Q1016 -RA NW (320°) 12.7mph 11°C 8°C
22/05/19 14:50 EGPO 221350Z 33012KT 9999 FEW011 SCT017 BKN026 11/08 Q1016 NNW (330°) 13.8mph 11°C 8°C
22/05/19 14:20 EGPO 221320Z 32012KT 9999 FEW011 BKN017 BKN031 12/08 Q1016 NW (320°) 13.8mph 12°C 8°C
22/05/19 13:50 EGPO 221250Z 31013KT 9999 FEW011 BKN018 BKN038 12/08 Q1016 NW (310°) 15.0mph 12°C 8°C
22/05/19 13:20 EGPO 221220Z 31012KT 9999 FEW011 BKN018 BKN045 13/09 Q1016 NW (310°) 13.8mph 13°C 9°C
22/05/19 12:50 EGPO 221150Z 31013KT 9999 FEW011 BKN018 BKN045 12/09 Q1016 NW (310°) 15.0mph 12°C 9°C